Time;durP1;ratioP1;P1;durP2;ratioP2;P2;SDS_P1;SDS_P2;PMS_P1;PMS_P2;Temp;Humidity;BMP_temperature;BMP_pressure;BME280_temperature;BME280_humidity;BME280_pressure;Samples;Min_cycle;Max_cycle;Signal;HPM_P1;HPM_P2
2022/10/19 00:00:03;;;;;;;4.07;2.55;;;18.30;67.50;;;;;;5053384;28;20183;-70
2022/10/19 00:02:29;;;;;;;6.05;3.13;;;18.30;67.60;;;;;;5052911;28;20172;-70
2022/10/19 00:04:54;;;;;;;3.50;2.67;;;18.30;67.60;;;;;;5053720;28;20179;-69
2022/10/19 00:07:20;;;;;;;4.45;2.50;;;18.30;67.70;;;;;;5053431;28;20171;-69
2022/10/19 00:09:45;;;;;;;4.70;2.72;;;18.20;67.60;;;;;;5052508;28;20179;-69
2022/10/19 00:12:12;;;;;;;5.07;2.72;;;18.20;67.50;;;;;;5053061;28;20275;-68
2022/10/19 00:14:37;;;;;;;3.88;2.35;;;18.20;67.50;;;;;;5053289;28;20211;-69
2022/10/19 00:17:03;;;;;;;4.28;2.33;;;18.20;67.50;;;;;;5052603;28;20171;-69
2022/10/19 00:19:28;;;;;;;5.18;2.95;;;18.20;67.50;;;;;;5053501;28;20168;-69
2022/10/19 00:21:54;;;;;;;3.33;2.28;;;18.20;67.50;;;;;;5052240;28;20540;-69
2022/10/19 00:24:19;;;;;;;5.18;2.50;;;18.20;67.50;;;;;;5053037;28;20635;-69
2022/10/19 00:26:45;;;;;;;4.13;2.55;;;18.20;67.50;;;;;;5053242;28;20562;-69
2022/10/19 00:29:11;;;;;;;4.20;2.63;;;18.20;67.60;;;;;;5052274;28;20223;-68
2022/10/19 00:31:37;;;;;;;5.07;2.58;;;18.20;67.50;;;;;;5052007;28;20182;-69
2022/10/19 00:34:02;;;;;;;4.72;2.58;;;18.20;67.50;;;;;;5052946;28;20171;-68
2022/10/19 00:36:38;;;;;;;5.10;3.15;;;18.20;67.50;;;;;;5052284;28;20282;-68
2022/10/19 00:39:04;;;;;;;3.80;2.47;;;18.20;67.50;;;;;;5052495;28;20174;-69
2022/10/19 00:41:31;;;;;;;4.53;2.50;;;18.20;67.50;;;;;;5053035;28;20179;-69
2022/10/19 00:43:59;;;;;;;3.45;2.50;;;18.20;67.50;;;;;;5052114;28;20179;-71
2022/10/19 00:46:28;;;;;;;3.78;2.33;;;18.20;67.50;;;;;;5053144;28;20232;-71
2022/10/19 00:49:18;;;;;;;2.88;2.42;;;18.20;67.50;;;;;;5052679;28;20218;-70
2022/10/19 00:51:45;;;;;;;3.97;2.47;;;18.20;67.50;;;;;;5051141;28;20714;-70
2022/10/19 00:54:11;;;;;;;3.67;2.47;;;18.20;67.50;;;;;;5051459;28;20175;-68
2022/10/19 00:56:38;;;;;;;3.08;2.03;;;18.20;67.40;;;;;;5051621;28;20178;-70
2022/10/19 00:59:03;;;;;;;3.42;2.20;;;18.10;67.40;;;;;;5049874;28;20179;-69
2022/10/19 01:01:29;;;;;;;3.40;2.35;;;18.20;67.50;;;;;;5051612;28;20228;-70
2022/10/19 01:03:54;;;;;;;4.35;2.35;;;18.10;67.40;;;;;;5051029;28;20200;-69
2022/10/19 01:06:20;;;;;;;6.30;2.72;;;18.10;67.40;;;;;;5051658;28;20187;-68
2022/10/19 01:08:45;;;;;;;4.53;2.47;;;18.10;67.40;;;;;;5051272;28;20280;-68
2022/10/19 01:11:37;;;;;;;4.35;2.60;;;18.10;67.40;;;;;;5051335;28;20803;-68
2022/10/19 01:14:08;;;;;;;3.38;2.08;;;18.10;67.40;;;;;;5042309;28;20182;-68
2022/10/19 01:17:09;;;;;;;3.25;2.30;;;18.10;67.40;;;;;;5052428;28;20179;-69
2022/10/19 01:19:57;;;;;;;3.65;2.45;;;18.10;67.40;;;;;;5030926;28;20664;-69
2022/10/19 01:22:25;;;;;;;3.53;2.53;;;18.10;67.40;;;;;;5032614;28;20194;-69
2022/10/19 01:24:58;;;;;;;4.28;2.10;;;18.10;67.40;;;;;;5032828;28;20164;-68
2022/10/19 01:27:52;;;;;;;4.53;2.17;;;18.10;67.50;;;;;;5030475;28;20189;-69
2022/10/19 01:30:25;;;;;;;2.95;1.73;;;18.10;67.40;;;;;;5031176;28;20642;-69
2022/10/19 01:33:07;;;;;;;2.85;2.28;;;18.10;67.40;;;;;;5041122;28;20194;-68
2022/10/19 01:35:56;;;;;;;3.55;2.17;;;18.10;67.40;;;;;;5051375;28;20235;-68
2022/10/19 01:38:33;;;;;;;3.88;2.47;;;18.10;67.40;;;;;;5051023;28;20669;-69
2022/10/19 01:41:33;;;;;;;2.72;2.10;;;18.10;67.40;;;;;;5050575;28;20210;-68
2022/10/19 01:44:03;;;;;;;3.35;2.22;;;18.10;67.40;;;;;;5042559;28;20183;-68
2022/10/19 01:46:31;;;;;;;3.38;2.25;;;18.00;67.30;;;;;;5034535;28;20190;-71
2022/10/19 01:49:05;;;;;;;6.00;2.30;;;18.00;67.20;;;;;;5051305;28;20186;-69
2022/10/19 01:51:36;;;;;;;4.13;1.90;;;18.00;67.30;;;;;;5051285;28;20175;-69
2022/10/19 01:54:04;;;;;;;4.38;2.30;;;18.00;67.20;;;;;;5051410;28;20193;-69
2022/10/19 01:56:30;;;;;;;3.05;1.95;;;18.00;67.20;;;;;;5051070;28;20183;-69
2022/10/19 01:58:57;;;;;;;4.43;2.25;;;18.00;67.30;;;;;;5051413;28;20178;-69
2022/10/19 02:01:22;;;;;;;3.40;2.13;;;18.00;67.30;;;;;;5050237;28;20206;-69
2022/10/19 02:03:48;;;;;;;4.57;2.30;;;18.00;67.20;;;;;;5034507;28;20634;-69
2022/10/19 02:06:14;;;;;;;3.13;1.98;;;18.00;68.10;;;;;;5052067;28;20181;-69
2022/10/19 02:08:44;;;;;;;3.58;1.77;;;18.00;67.20;;;;;;5050424;28;20198;-68
2022/10/19 02:11:10;;;;;;;3.25;1.88;;;18.00;67.20;;;;;;5055225;28;20258;-68
2022/10/19 02:13:35;;;;;;;2.60;2.10;;;18.00;67.20;;;;;;5038228;28;20201;-68
2022/10/19 02:16:03;;;;;;;3.10;1.92;;;17.90;67.20;;;;;;5053761;28;20337;-68
2022/10/19 02:18:33;;;;;;;2.58;1.80;;;18.00;67.20;;;;;;5054686;28;20613;-68
2022/10/19 02:21:02;;;;;;;2.85;2.15;;;18.00;67.20;;;;;;5055703;28;20240;-68
2022/10/19 02:23:28;;;;;;;2.08;1.70;;;17.90;67.20;;;;;;5055149;28;20190;-69
2022/10/19 02:25:54;;;;;;;2.58;2.17;;;18.00;67.20;;;;;;5056090;28;20657;-69
2022/10/19 02:28:19;;;;;;;3.30;1.70;;;18.00;67.20;;;;;;5054284;28;20225;-69
2022/10/19 02:30:45;;;;;;;2.22;1.70;;;17.90;67.10;;;;;;5054486;28;20190;-70
2022/10/19 02:33:11;;;;;;;3.38;1.95;;;17.90;67.10;;;;;;5054324;28;20408;-68
2022/10/19 02:35:37;;;;;;;2.10;1.83;;;17.90;67.20;;;;;;5053716;28;20214;-68
2022/10/19 02:38:02;;;;;;;2.60;1.92;;;17.90;67.10;;;;;;5037767;28;20178;-68
2022/10/19 02:40:30;;;;;;;2.28;1.63;;;17.90;67.10;;;;;;5054705;28;20313;-69
2022/10/19 02:43:09;;;;;;;3.72;2.08;;;17.90;67.10;;;;;;5037338;28;20260;-69
2022/10/19 02:45:37;;;;;;;3.08;1.98;;;17.90;67.10;;;;;;5038032;28;20549;-72
2022/10/19 02:48:16;;;;;;;2.38;2.10;;;17.90;67.10;;;;;;5037842;28;20186;-69
2022/10/19 02:50:46;;;;;;;3.08;1.75;;;17.90;67.10;;;;;;5037261;28;20559;-69
2022/10/19 02:53:12;;;;;;;2.55;1.50;;;17.90;67.10;;;;;;5055232;28;20186;-68
2022/10/19 02:55:38;;;;;;;2.97;1.90;;;17.90;67.10;;;;;;5055097;28;20673;-70
2022/10/19 02:58:03;;;;;;;1.63;1.50;;;17.90;67.10;;;;;;5053331;28;20175;-68
2022/10/19 03:00:29;;;;;;;1.70;1.60;;;17.90;67.10;;;;;;5055139;28;20182;-70
2022/10/19 03:02:54;;;;;;;2.95;1.70;;;17.90;67.10;;;;;;5055230;28;20572;-69
2022/10/19 03:05:20;;;;;;;1.85;1.70;;;17.90;67.10;;;;;;5054099;28;20637;-68
2022/10/19 03:07:45;;;;;;;2.55;1.85;;;17.90;67.10;;;;;;5055011;28;20171;-68
2022/10/19 03:10:11;;;;;;;1.98;1.50;;;17.80;67.00;;;;;;5054667;28;20201;-67
2022/10/19 03:12:36;;;;;;;2.80;1.88;;;17.90;67.10;;;;;;5054177;28;20234;-69
2022/10/19 03:15:02;;;;;;;3.00;1.58;;;17.80;67.00;;;;;;5054472;28;20564;-68
2022/10/19 03:17:28;;;;;;;2.88;1.40;;;17.80;67.00;;;;;;5054913;28;20174;-68
2022/10/19 03:19:53;;;;;;;2.28;1.52;;;17.80;67.00;;;;;;5053972;28;20278;-69
2022/10/19 03:22:19;;;;;;;3.15;1.52;;;17.80;67.00;;;;;;5053864;28;20270;-69
2022/10/19 03:24:44;;;;;;;1.83;1.33;;;17.80;67.00;;;;;;5054499;28;20262;-69
2022/10/19 03:27:10;;;;;;;1.98;1.75;;;17.80;67.40;;;;;;5054430;28;20358;-68
2022/10/19 03:29:35;;;;;;;3.55;1.42;;;17.80;67.00;;;;;;5054862;28;20258;-69
2022/10/19 03:32:01;;;;;;;2.28;1.60;;;17.80;67.00;;;;;;5053502;28;20316;-68
2022/10/19 03:34:26;;;;;;;2.38;1.58;;;17.80;67.80;;;;;;5054529;28;20627;-68
2022/10/19 03:36:52;;;;;;;2.45;1.60;;;17.80;67.00;;;;;;5054622;28;20816;-69
2022/10/19 03:39:17;;;;;;;1.90;1.42;;;17.80;67.00;;;;;;5053531;28;20181;-69
2022/10/19 03:41:43;;;;;;;2.40;1.60;;;17.80;66.90;;;;;;5054551;28;20266;-69
2022/10/19 03:44:09;;;;;;;1.35;1.25;;;17.80;66.90;;;;;;5054311;28;20253;-69
2022/10/19 03:46:34;;;;;;;2.92;1.50;;;17.80;66.90;;;;;;5053703;28;20187;-70
2022/10/19 03:49:00;;;;;;;2.00;1.40;;;17.70;66.90;;;;;;5054060;28;20216;-69
2022/10/19 03:51:27;;;;;;;1.27;1.10;;;17.80;66.90;;;;;;5054300;28;20179;-69
2022/10/19 03:54:03;;;;;;;2.25;1.48;;;17.80;66.90;;;;;;5053833;28;20214;-69
2022/10/19 03:56:29;;;;;;;2.28;1.50;;;17.70;66.90;;;;;;5054453;28;20225;-69
2022/10/19 03:58:55;;;;;;;2.35;1.70;;;17.70;66.80;;;;;;5054171;28;20662;-69
2022/10/19 04:01:23;;;;;;;1.40;1.17;;;17.80;66.80;;;;;;5052623;28;20237;-69
2022/10/19 04:03:56;;;;;;;5.68;1.45;;;17.70;66.80;;;;;;5053943;28;20191;-68
2022/10/19 04:06:29;;;;;;;2.10;1.50;;;17.70;67.60;;;;;;5053886;28;20720;-68
2022/10/19 04:08:54;;;;;;;2.08;1.30;;;17.70;66.80;;;;;;5053445;28;20179;-67
2022/10/19 04:11:22;;;;;;;3.08;1.85;;;17.70;66.70;;;;;;5053601;28;20289;-67
2022/10/19 04:13:49;;;;;;;1.70;1.20;;;17.70;66.70;;;;;;5053886;28;20262;-68
2022/10/19 04:16:14;;;;;;;1.27;1.17;;;17.70;66.70;;;;;;5052484;28;20217;-68
2022/10/19 04:18:40;;;;;;;1.23;1.13;;;17.70;66.70;;;;;;5053781;28;20266;-68
2022/10/19 04:21:06;;;;;;;1.45;1.20;;;17.70;66.80;;;;;;5052775;28;20175;-68
2022/10/19 04:23:33;;;;;;;3.00;1.50;;;17.70;66.70;;;;;;5053986;28;20190;-68
2022/10/19 04:25:59;;;;;;;1.42;1.10;;;17.70;66.70;;;;;;5053383;28;20183;-69
2022/10/19 04:28:25;;;;;;;1.23;1.10;;;17.60;66.60;;;;;;5053005;28;20175;-68
2022/10/19 04:30:50;;;;;;;2.38;1.80;;;17.60;66.60;;;;;;5053286;28;20711;-68
2022/10/19 04:33:16;;;;;;;3.35;1.50;;;17.60;66.60;;;;;;5053072;28;20233;-67
2022/10/19 04:35:41;;;;;;;1.88;1.60;;;17.60;66.70;;;;;;5052686;28;20214;-68
2022/10/19 04:38:07;;;;;;;1.30;1.20;;;17.60;66.60;;;;;;5053274;28;20179;-68
2022/10/19 04:40:35;;;;;;;2.55;1.33;;;17.60;66.60;;;;;;5053311;28;20172;-68
2022/10/19 04:43:01;;;;;;;1.63;1.27;;;17.60;66.60;;;;;;5052432;28;20181;-69
2022/10/19 04:45:26;;;;;;;1.48;0.98;;;17.60;66.60;;;;;;5052824;28;20175;-69
2022/10/19 04:47:55;;;;;;;1.33;1.20;;;17.60;66.60;;;;;;5053180;28;20183;-70
2022/10/19 04:50:21;;;;;;;4.32;1.48;;;17.60;66.60;;;;;;5052486;28;20183;-69
2022/10/19 04:52:46;;;;;;;2.30;1.55;;;17.60;66.60;;;;;;5053372;28;20175;-69
2022/10/19 04:55:12;;;;;;;2.42;1.63;;;17.60;66.60;;;;;;5053043;28;20214;-68
2022/10/19 04:57:37;;;;;;;1.80;1.40;;;17.60;66.60;;;;;;5052311;28;20186;-69
2022/10/19 05:00:03;;;;;;;2.22;1.27;;;17.60;66.60;;;;;;5052455;28;20179;-68
2022/10/19 05:02:29;;;;;;;1.35;1.25;;;17.60;66.60;;;;;;5053144;28;20229;-69
2022/10/19 05:04:54;;;;;;;1.85;1.45;;;17.60;66.50;;;;;;5052425;28;20179;-68
2022/10/19 05:07:20;;;;;;;1.20;1.10;;;17.60;66.60;;;;;;5052772;28;20253;-68
2022/10/19 05:09:45;;;;;;;1.95;1.20;;;17.60;66.60;;;;;;5053032;28;20178;-68
2022/10/19 05:12:11;;;;;;;1.17;1.10;;;17.60;66.60;;;;;;5051693;28;20227;-68
2022/10/19 05:14:36;;;;;;;2.30;1.40;;;17.60;66.60;;;;;;5052797;28;20596;-68
2022/10/19 05:17:02;;;;;;;1.20;1.10;;;17.60;66.60;;;;;;5052453;28;20614;-68
2022/10/19 05:19:27;;;;;;;2.80;1.30;;;17.60;66.60;;;;;;5052085;28;20253;-68
2022/10/19 05:21:53;;;;;;;1.40;1.30;;;17.50;66.50;;;;;;5052853;28;20243;-68
2022/10/19 05:24:18;;;;;;;1.77;1.10;;;17.60;66.60;;;;;;5052037;28;20175;-68
2022/10/19 05:26:44;;;;;;;2.83;1.15;;;17.50;66.60;;;;;;5052502;28;20217;-68
2022/10/19 05:29:10;;;;;;;1.42;1.15;;;17.60;66.60;;;;;;5052449;28;20220;-67
2022/10/19 05:31:36;;;;;;;2.33;1.10;;;17.50;66.50;;;;;;5051981;28;20189;-68
2022/10/19 05:34:02;;;;;;;1.35;1.25;;;17.50;66.50;;;;;;5052566;28;20175;-67
2022/10/19 05:36:35;;;;;;;1.58;1.10;;;17.50;66.50;;;;;;5052848;28;20219;-67
2022/10/19 05:39:12;;;;;;;1.58;1.17;;;17.50;66.50;;;;;;5051765;28;20179;-68
2022/10/19 05:41:37;;;;;;;2.50;1.50;;;17.50;66.50;;;;;;5052658;28;20179;-68
2022/10/19 05:44:03;;;;;;;1.50;1.10;;;17.50;66.50;;;;;;5052085;28;20178;-68
2022/10/19 05:46:29;;;;;;;1.98;1.30;;;17.50;66.50;;;;;;5055770;28;20179;-70
2022/10/19 05:48:55;;;;;;;1.88;1.40;;;17.40;66.40;;;;;;5056773;28;20198;-68
2022/10/19 05:51:21;;;;;;;1.70;1.35;;;17.50;66.50;;;;;;5056443;28;20202;-68
2022/10/19 05:53:47;;;;;;;2.22;1.42;;;17.50;66.50;;;;;;5055705;28;20636;-68
2022/10/19 05:56:15;;;;;;;1.30;1.20;;;17.50;66.50;;;;;;5056401;28;20230;-68
2022/10/19 05:58:41;;;;;;;2.53;1.75;;;17.50;66.50;;;;;;5056564;28;20567;-69
2022/10/19 06:01:08;;;;;;;1.67;1.40;;;17.50;66.40;;;;;;5055099;28;20270;-68
2022/10/19 06:03:33;;;;;;;2.67;1.42;;;17.40;66.40;;;;;;5056508;28;20207;-69
2022/10/19 06:06:01;;;;;;;2.25;1.55;;;17.50;66.40;;;;;;5056221;28;20210;-68
2022/10/19 06:08:27;;;;;;;2.83;1.80;;;17.50;66.40;;;;;;5055429;28;20534;-67
2022/10/19 06:10:55;;;;;;;1.33;1.10;;;17.40;66.30;;;;;;5055987;28;20175;-68
2022/10/19 06:13:20;;;;;;;3.28;1.30;;;17.50;66.40;;;;;;5055063;28;20198;-70
2022/10/19 06:15:49;;;;;;;1.30;1.20;;;17.50;66.40;;;;;;5055412;28;20677;-68
2022/10/19 06:18:14;;;;;;;1.55;1.45;;;17.40;66.30;;;;;;5055843;28;20179;-68
2022/10/19 06:20:43;;;;;;;1.35;1.25;;;17.40;66.30;;;;;;5055236;28;20266;-68
2022/10/19 06:23:09;;;;;;;1.70;1.60;;;17.40;66.30;;;;;;5055718;28;20179;-68
2022/10/19 06:25:35;;;;;;;1.40;1.30;;;17.40;66.30;;;;;;5056185;28;20533;-69
2022/10/19 06:28:00;;;;;;;2.15;1.73;;;17.40;67.10;;;;;;5055108;28;20171;-69
2022/10/19 06:30:26;;;;;;;2.35;1.52;;;17.40;66.20;;;;;;5055740;28;20183;-69
2022/10/19 06:32:51;;;;;;;2.28;1.50;;;17.40;66.20;;;;;;5055904;28;20586;-68
2022/10/19 06:35:17;;;;;;;2.13;1.33;;;17.40;66.20;;;;;;5054667;28;20834;-68
2022/10/19 06:37:43;;;;;;;1.55;1.10;;;17.40;66.20;;;;;;5055661;28;20182;-68
2022/10/19 06:40:09;;;;;;;1.52;1.42;;;17.40;67.10;;;;;;5055753;28;20645;-68
2022/10/19 06:42:37;;;;;;;1.25;1.15;;;17.40;66.20;;;;;;5055185;28;20195;-70
2022/10/19 06:45:07;;;;;;;3.25;1.58;;;17.40;66.10;;;;;;5055381;28;20187;-69
2022/10/19 06:47:33;;;;;;;1.45;1.23;;;17.40;66.20;;;;;;5055752;28;20258;-70
2022/10/19 06:49:59;;;;;;;1.85;1.50;;;17.40;66.20;;;;;;5054649;28;20252;-69
2022/10/19 06:52:24;;;;;;;1.60;1.35;;;17.40;66.20;;;;;;5055511;28;20195;-69
2022/10/19 06:54:50;;;;;;;1.42;1.25;;;17.40;66.10;;;;;;5055744;28;20234;-68
2022/10/19 06:57:15;;;;;;;1.92;1.27;;;17.40;66.10;;;;;;5053100;28;20602;-72
2022/10/19 06:59:41;;;;;;;1.75;1.30;;;17.40;66.00;;;;;;5055210;28;20713;-72
2022/10/19 07:02:06;;;;;;;2.42;1.10;;;17.50;66.00;;;;;;5055022;28;20265;-70
2022/10/19 07:04:32;;;;;;;1.80;1.33;;;17.40;66.00;;;;;;5054543;28;20274;-72
2022/10/19 07:06:58;;;;;;;1.83;1.25;;;17.40;66.00;;;;;;5054792;28;20270;-68
2022/10/19 07:09:23;;;;;;;1.33;1.20;;;17.50;65.90;;;;;;5055317;28;20194;-69
2022/10/19 07:11:49;;;;;;;1.58;1.15;;;17.50;65.90;;;;;;5054238;28;20227;-70
2022/10/19 07:14:14;;;;;;;2.03;1.20;;;17.50;65.90;;;;;;5054473;28;20171;-69
2022/10/19 07:16:40;;;;;;;2.30;1.05;;;17.50;65.80;;;;;;5054697;28;20614;-69
2022/10/19 07:19:05;;;;;;;1.33;1.10;;;17.60;65.80;;;;;;5054012;28;20179;-69
2022/10/19 07:21:31;;;;;;;1.70;1.30;;;17.60;65.80;;;;;;5054911;28;20171;-69
2022/10/19 07:23:56;;;;;;;1.20;1.10;;;17.60;65.70;;;;;;5053813;28;20258;-68
2022/10/19 07:26:29;;;;;;;2.28;1.10;;;17.60;65.70;;;;;;5055068;28;20183;-68
2022/10/19 07:28:55;;;;;;;4.90;1.80;;;17.60;65.90;;;;;;5054287;28;20218;-69
2022/10/19 07:31:22;;;;;;;3.72;2.13;;;17.70;66.00;;;;;;5053205;28;20642;-69
2022/10/19 07:33:54;;;;;;;4.00;2.20;;;17.80;65.90;;;;;;5054628;28;20237;-68
2022/10/19 07:36:19;;;;;;;8.35;2.50;;;17.80;65.50;;;;;;5054343;28;20669;-67
2022/10/19 07:38:45;;;;;;;5.90;3.20;;;17.90;65.70;;;;;;5053945;28;20175;-68
2022/10/19 07:41:12;;;;;;;6.47;4.10;;;17.90;66.10;;;;;;5054518;28;20182;-68
2022/10/19 07:43:38;;;;;;;9.32;3.97;;;17.90;66.20;;;;;;5054662;28;20258;-67
2022/10/19 07:46:05;;;;;;;7.25;4.07;;;17.90;66.30;;;;;;5053589;28;20266;-69
2022/10/19 07:48:31;;;;;;;8.55;3.63;;;18.00;66.40;;;;;;5053369;28;20183;-67
2022/10/19 07:50:57;;;;;;;8.30;3.83;;;18.00;66.40;;;;;;5054943;28;20179;-68
2022/10/19 07:53:25;;;;;;;7.78;3.47;;;18.00;66.50;;;;;;5054072;28;20224;-70
2022/10/19 07:55:50;;;;;;;8.32;3.92;;;18.10;66.50;;;;;;5054283;28;20666;-68
2022/10/19 07:58:16;;;;;;;5.05;3.53;;;18.10;66.60;;;;;;5054018;28;20305;-68
2022/10/19 08:00:41;;;;;;;9.60;4.28;;;18.10;66.60;;;;;;5053259;28;20523;-68
2022/10/19 08:03:07;;;;;;;5.97;3.70;;;18.20;66.60;;;;;;5053477;28;20183;-68
2022/10/19 08:05:33;;;;;;;7.20;3.22;;;18.20;66.70;;;;;;5054318;28;20534;-67
2022/10/19 08:07:58;;;;;;;7.35;3.58;;;18.20;66.70;;;;;;5053017;28;20257;-69
2022/10/19 08:10:24;;;;;;;3.95;2.90;;;18.20;66.60;;;;;;5054134;28;20187;-70
2022/10/19 08:12:49;;;;;;;5.00;3.17;;;18.20;66.70;;;;;;5053844;28;20223;-68
2022/10/19 08:15:15;;;;;;;9.45;3.38;;;18.20;66.70;;;;;;5052867;28;20739;-68
2022/10/19 08:17:40;;;;;;;8.75;3.50;;;18.20;66.70;;;;;;5053252;28;20175;-69
2022/10/19 08:20:06;;;;;;;7.75;3.22;;;18.20;66.60;;;;;;5053681;28;20182;-72
2022/10/19 08:22:32;;;;;;;6.63;2.80;;;18.30;66.30;;;;;;5053161;28;20190;-72
2022/10/19 08:24:57;;;;;;;7.20;2.85;;;18.30;66.10;;;;;;5052192;28;20237;-72
2022/10/19 08:27:23;;;;;;;5.00;2.45;;;18.20;66.00;;;;;;5053163;28;20651;-72
2022/10/19 08:29:49;;;;;;;4.18;2.70;;;18.20;66.10;;;;;;5053646;28;20657;-72
2022/10/19 08:32:14;;;;;;;5.40;2.90;;;18.10;66.00;;;;;;5053225;28;20266;-72
2022/10/19 08:34:40;;;;;;;4.95;2.70;;;18.20;65.90;;;;;;5052826;28;20293;-72
2022/10/19 08:37:06;;;;;;;3.80;2.40;;;18.20;65.80;;;;;;5053434;28;20255;-71
2022/10/19 08:39:31;;;;;;;7.15;2.50;;;18.20;65.70;;;;;;5053731;28;20202;-72
2022/10/19 08:42:02;;;;;;;3.53;2.17;;;18.20;65.50;;;;;;5052549;28;20172;-72
2022/10/19 08:44:52;;;;;;;2.83;2.00;;;18.30;65.50;;;;;;5053607;28;20637;-72
2022/10/19 08:47:44;;;;;;;6.13;2.40;;;18.30;65.40;;;;;;5053381;28;20198;-73
2022/10/19 08:50:28;;;;;;;4.30;2.20;;;18.30;65.40;;;;;;5049286;28;20186;-72
2022/10/19 08:53:15;;;;;;;4.80;2.42;;;18.30;65.30;;;;;;5051979;28;20711;-72
2022/10/19 08:55:59;;;;;;;3.17;2.00;;;18.40;65.40;;;;;;5050980;28;20253;-73
2022/10/19 08:58:44;;;;;;;4.43;2.10;;;18.40;65.30;;;;;;5052271;28;20233;-73
2022/10/19 09:01:31;;;;;;;3.92;1.95;;;18.50;65.30;;;;;;5052896;28;20178;-72
2022/10/19 09:04:09;;;;;;;4.45;1.63;;;18.40;65.20;;;;;;5051211;28;20215;-72
2022/10/19 09:06:56;;;;;;;3.58;2.20;;;18.50;65.10;;;;;;5052120;28;20179;-72
2022/10/19 09:09:21;;;;;;;6.55;2.03;;;18.50;65.00;;;;;;5052755;28;20198;-72
2022/10/19 09:11:49;;;;;;;5.88;2.13;;;18.60;65.00;;;;;;5034824;28;20254;-72
2022/10/19 09:14:19;;;;;;;3.35;1.80;;;18.60;64.90;;;;;;5052899;28;20190;-72
2022/10/19 09:16:45;;;;;;;2.88;1.80;;;18.60;64.90;;;;;;5051153;28;20193;-72
2022/10/19 09:19:24;;;;;;;3.47;1.60;;;18.60;64.80;;;;;;5034214;28;20168;-71
2022/10/19 09:21:53;;;;;;;2.90;1.40;;;18.60;64.80;;;;;;5035201;28;20194;-72
2022/10/19 09:24:29;;;;;;;2.50;2.15;;;18.60;64.70;;;;;;5050571;28;20175;-72
2022/10/19 09:26:56;;;;;;;4.40;2.00;;;18.60;64.70;;;;;;5051723;28;20179;-72
2022/10/19 09:29:43;;;;;;;2.70;1.58;;;18.70;64.70;;;;;;5035287;28;20551;-72
2022/10/19 09:32:20;;;;;;;2.42;1.52;;;18.70;64.60;;;;;;5050543;28;20545;-72
2022/10/19 09:34:53;;;;;;;2.22;1.60;;;18.70;64.50;;;;;;5051765;28;20210;-72
2022/10/19 09:37:19;;;;;;;3.83;1.48;;;18.80;64.70;;;;;;5052553;28;20233;-71
2022/10/19 09:39:45;;;;;;;1.98;1.25;;;18.80;65.40;;;;;;5034362;28;20610;-72
2022/10/19 09:42:23;;;;;;;3.55;1.75;;;18.80;65.50;;;;;;5052564;28;20258;-72
2022/10/19 09:44:49;;;;;;;3.15;1.33;;;18.80;64.60;;;;;;5052033;28;20171;-72
2022/10/19 09:47:35;;;;;;;2.85;1.30;;;18.80;64.70;;;;;;5050980;28;20183;-72
2022/10/19 09:50:20;;;;;;;2.28;1.70;;;18.90;64.70;;;;;;5052558;28;20202;-72
2022/10/19 09:52:46;;;;;;;1.40;1.30;;;18.80;64.50;;;;;;5052102;28;20179;-72
2022/10/19 09:55:12;;;;;;;1.67;1.20;;;18.80;64.70;;;;;;5051235;28;20293;-72
2022/10/19 09:57:45;;;;;;;1.15;0.93;;;18.90;64.70;;;;;;5052443;28;20266;-73
2022/10/19 10:00:18;;;;;;;2.60;1.42;;;18.90;64.80;;;;;;5051920;28;20183;-72
2022/10/19 10:02:51;;;;;;;1.67;1.20;;;18.80;64.80;;;;;;5052673;28;20565;-73
2022/10/19 10:05:17;;;;;;;2.15;1.40;;;18.80;64.80;;;;;;5052379;28;20290;-72
2022/10/19 10:07:42;;;;;;;2.83;1.40;;;18.90;65.00;;;;;;5051948;28;20619;-72
2022/10/19 10:10:28;;;;;;;1.48;1.00;;;18.90;65.00;;;;;;5052142;28;20179;-72
2022/10/19 10:12:53;;;;;;;2.78;1.45;;;18.90;65.00;;;;;;5050413;28;20253;-72
2022/10/19 10:15:24;;;;;;;1.60;1.08;;;18.90;64.90;;;;;;5052245;28;20203;-71
2022/10/19 10:17:50;;;;;;;3.13;1.42;;;19.00;64.80;;;;;;5051225;28;20190;-72
2022/10/19 10:20:22;;;;;;;2.50;1.40;;;18.90;64.70;;;;;;5050239;28;20163;-72
2022/10/19 10:22:52;;;;;;;1.58;1.38;;;18.90;64.70;;;;;;5035236;28;20237;-72
2022/10/19 10:25:18;;;;;;;1.70;1.02;;;18.90;64.70;;;;;;5052217;28;20206;-72
2022/10/19 10:27:52;;;;;;;3.60;1.48;;;19.00;64.70;;;;;;5051712;28;20198;-72
2022/10/19 10:30:18;;;;;;;3.67;1.27;;;18.90;64.70;;;;;;5050949;28;20199;-72
2022/10/19 10:32:48;;;;;;;3.55;1.27;;;19.00;64.70;;;;;;5056133;28;20214;-73
2022/10/19 10:35:24;;;;;;;3.65;1.13;;;19.00;64.70;;;;;;5037146;28;20214;-72
2022/10/19 10:37:49;;;;;;;4.18;1.27;;;18.90;64.60;;;;;;5054956;28;20254;-71
2022/10/19 10:40:30;;;;;;;2.05;1.00;;;19.00;64.70;;;;;;5054442;28;20206;-72
2022/10/19 10:43:14;;;;;;;1.35;1.15;;;19.00;64.60;;;;;;5037703;28;20175;-72
2022/10/19 10:45:41;;;;;;;1.77;1.02;;;19.00;64.60;;;;;;5054543;28;20179;-73
2022/10/19 10:48:17;;;;;;;1.15;0.90;;;19.00;64.50;;;;;;5037218;28;20206;-72
2022/10/19 10:50:42;;;;;;;2.90;0.95;;;19.00;64.50;;;;;;5055567;28;20653;-72
2022/10/19 10:53:30;;;;;;;2.80;1.33;;;19.00;64.40;;;;;;5055183;28;20179;-72
2022/10/19 10:55:56;;;;;;;1.35;0.68;;;19.00;64.30;;;;;;5054701;28;20565;-72
2022/10/19 10:58:34;;;;;;;2.53;1.23;;;19.00;64.20;;;;;;5055755;28;20179;-73
2022/10/19 11:01:01;;;;;;;1.67;1.02;;;19.00;64.10;;;;;;5054240;28;20222;-72
2022/10/19 11:03:28;;;;;;;2.60;0.90;;;19.00;64.10;;;;;;5053564;28;20174;-72
2022/10/19 11:05:57;;;;;;;2.00;1.15;;;19.10;64.00;;;;;;5055317;28;20175;-72
2022/10/19 11:08:30;;;;;;;1.80;1.00;;;19.10;64.00;;;;;;5054102;28;20194;-72
2022/10/19 11:11:07;;;;;;;3.08;1.05;;;19.00;63.90;;;;;;5053418;28;20176;-72
2022/10/19 11:13:44;;;;;;;2.55;1.00;;;19.10;64.00;;;;;;5055275;28;20190;-73
2022/10/19 11:16:28;;;;;;;2.50;0.85;;;19.00;63.90;;;;;;5053064;28;20214;-72
2022/10/19 11:19:07;;;;;;;1.65;1.05;;;19.00;64.00;;;;;;5055029;28;20259;-72
2022/10/19 11:21:36;;;;;;;1.00;0.80;;;19.00;64.00;;;;;;5039006;28;20214;-72
2022/10/19 11:24:11;;;;;;;1.58;0.95;;;19.00;63.80;;;;;;5052918;28;20183;-71
2022/10/19 11:26:43;;;;;;;1.95;1.00;;;19.10;63.70;;;;;;5054958;28;20217;-72
2022/10/19 11:29:40;;;;;;;1.65;1.00;;;19.20;63.60;;;;;;5053366;28;20182;-72
2022/10/19 11:32:11;;;;;;;2.53;1.13;;;19.10;63.40;;;;;;5053092;28;20186;-72
2022/10/19 11:34:37;;;;;;;1.67;0.90;;;19.20;63.30;;;;;;5037491;28;20182;-72
2022/10/19 11:37:33;;;;;;;2.05;1.10;;;19.20;63.20;;;;;;5054187;28;20183;-71
2022/10/19 11:40:04;;;;;;;1.20;1.02;;;19.20;63.20;;;;;;5054349;28;20622;-72
2022/10/19 11:42:41;;;;;;;2.17;0.93;;;19.20;63.20;;;;;;5052648;28;20190;-72
2022/10/19 11:45:36;;;;;;;3.42;1.15;;;19.20;63.20;;;;;;5053708;28;20171;-72
2022/10/19 11:48:16;;;;;;;1.70;1.20;;;19.20;63.30;;;;;;5053388;28;20187;-72
2022/10/19 11:50:50;;;;;;;1.95;0.90;;;19.10;63.30;;;;;;5053592;28;20183;-72
2022/10/19 11:53:45;;;;;;;1.00;0.82;;;19.00;63.30;;;;;;5036250;28;20177;-72
2022/10/19 11:56:32;;;;;;;2.42;1.00;;;19.10;64.20;;;;;;5043585;28;20223;-72
2022/10/19 11:59:11;;;;;;;1.48;0.93;;;19.10;63.30;;;;;;5053568;28;20239;-73
2022/10/19 12:01:44;;;;;;;2.00;0.93;;;19.10;63.20;;;;;;5038031;28;20171;-72
2022/10/19 12:04:31;;;;;;;1.00;0.70;;;19.10;63.10;;;;;;5052893;28;20182;-72
2022/10/19 12:06:58;;;;;;;0.95;0.60;;;19.10;63.10;;;;;;5052134;28;20178;-72
2022/10/19 12:09:44;;;;;;;1.73;1.00;;;19.10;63.10;;;;;;5053082;28;20183;-72
2022/10/19 12:12:23;;;;;;;1.67;0.93;;;19.10;63.20;;;;;;5052592;28;20253;-72
2022/10/19 12:14:51;;;;;;;0.85;0.82;;;19.10;63.20;;;;;;5052896;28;20210;-72
2022/10/19 12:17:22;;;;;;;2.33;0.90;;;19.10;63.20;;;;;;5053579;28;20179;-72
2022/10/19 12:19:49;;;;;;;2.50;1.08;;;19.10;63.20;;;;;;5036140;28;20252;-72
2022/10/19 12:22:23;;;;;;;2.30;0.88;;;19.10;63.20;;;;;;5036173;28;20171;-72
2022/10/19 12:24:49;;;;;;;1.92;1.00;;;19.10;63.20;;;;;;5036637;28;20175;-72
2022/10/19 12:27:15;;;;;;;2.17;0.85;;;19.10;63.10;;;;;;5035176;28;20182;-72
2022/10/19 12:29:43;;;;;;;1.00;0.77;;;19.10;63.10;;;;;;5053597;28;20304;-72
2022/10/19 12:32:11;;;;;;;0.80;0.80;;;19.10;62.90;;;;;;5035643;28;20182;-72
2022/10/19 12:34:36;;;;;;;1.15;0.85;;;19.10;62.80;;;;;;5035184;28;20179;-72
2022/10/19 12:37:14;;;;;;;1.45;0.80;;;19.10;62.80;;;;;;5053220;28;20179;-72
2022/10/19 12:40:08;;;;;;;1.08;0.80;;;19.10;62.70;;;;;;5037109;28;20189;-72
2022/10/19 12:42:51;;;;;;;1.40;1.00;;;19.10;62.70;;;;;;5051877;28;20508;-72
2022/10/19 12:45:34;;;;;;;1.95;1.02;;;19.20;62.60;;;;;;5052271;28;20186;-72
2022/10/19 12:48:13;;;;;;;3.05;1.52;;;19.10;62.50;;;;;;5034907;28;20183;-72
2022/10/19 12:50:58;;;;;;;2.00;0.80;;;19.10;62.30;;;;;;5053500;28;20179;-72
2022/10/19 12:53:29;;;;;;;2.10;1.00;;;19.20;62.40;;;;;;5035899;28;20175;-72
2022/10/19 12:56:10;;;;;;;2.10;0.90;;;19.20;62.20;;;;;;5051478;28;20264;-73
2022/10/19 12:58:43;;;;;;;1.95;0.80;;;19.20;62.10;;;;;;5052094;28;20174;-73
2022/10/19 13:01:23;;;;;;;2.70;0.85;;;19.20;61.90;;;;;;5051618;28;20262;-72